sensor_id;sensor_type;location;lat;lon;timestamp;temperature;humidity
27567;DHT22;15006;48.584;9.186;2023-06-19T00:01:26;19.20;51.80
27567;DHT22;15006;48.584;9.186;2023-06-19T00:03:52;19.20;51.80
27567;DHT22;15006;48.584;9.186;2023-06-19T00:06:18;19.20;51.80
27567;DHT22;15006;48.584;9.186;2023-06-19T00:08:44;19.30;51.70
27567;DHT22;15006;48.584;9.186;2023-06-19T00:11:10;19.30;51.70
27567;DHT22;15006;48.584;9.186;2023-06-19T00:13:36;19.30;51.80
27567;DHT22;15006;48.584;9.186;2023-06-19T00:16:02;19.30;51.70
27567;DHT22;15006;48.584;9.186;2023-06-19T00:18:29;19.20;51.60
27567;DHT22;15006;48.584;9.186;2023-06-19T00:20:55;19.10;51.80
27567;DHT22;15006;48.584;9.186;2023-06-19T00:23:23;19.10;51.90
27567;DHT22;15006;48.584;9.186;2023-06-19T00:25:49;19.10;52.00
27567;DHT22;15006;48.584;9.186;2023-06-19T00:28:15;19.00;51.90
27567;DHT22;15006;48.584;9.186;2023-06-19T00:30:45;18.90;51.90
27567;DHT22;15006;48.584;9.186;2023-06-19T00:33:12;18.90;51.40
27567;DHT22;15006;48.584;9.186;2023-06-19T00:35:37;18.80;51.80
27567;DHT22;15006;48.584;9.186;2023-06-19T00:38:05;18.70;52.20
27567;DHT22;15006;48.584;9.186;2023-06-19T00:40:32;18.60;52.70
27567;DHT22;15006;48.584;9.186;2023-06-19T00:43:00;18.60;52.90
27567;DHT22;15006;48.584;9.186;2023-06-19T00:45:27;18.50;53.10
27567;DHT22;15006;48.584;9.186;2023-06-19T00:47:54;18.60;53.50
27567;DHT22;15006;48.584;9.186;2023-06-19T00:50:23;18.60;53.40
27567;DHT22;15006;48.584;9.186;2023-06-19T00:52:49;18.60;53.60
27567;DHT22;15006;48.584;9.186;2023-06-19T00:55:17;18.70;53.60
27567;DHT22;15006;48.584;9.186;2023-06-19T00:57:43;18.80;53.80
27567;DHT22;15006;48.584;9.186;2023-06-19T01:00:11;18.80;53.60
27567;DHT22;15006;48.584;9.186;2023-06-19T01:02:38;18.90;53.60
27567;DHT22;15006;48.584;9.186;2023-06-19T01:05:05;18.90;53.50
27567;DHT22;15006;48.584;9.186;2023-06-19T01:10:41;19.00;53.80
27567;DHT22;15006;48.584;9.186;2023-06-19T01:13:31;19.00;53.30
27567;DHT22;15006;48.584;9.186;2023-06-19T01:16:07;19.10;53.70
27567;DHT22;15006;48.584;9.186;2023-06-19T01:18:33;19.10;53.40
27567;DHT22;15006;48.584;9.186;2023-06-19T01:21:29;19.10;53.40
27567;DHT22;15006;48.584;9.186;2023-06-19T01:23:55;19.10;53.40
27567;DHT22;15006;48.584;9.186;2023-06-19T01:26:23;19.10;53.40
27567;DHT22;15006;48.584;9.186;2023-06-19T01:28:53;19.10;53.30
27567;DHT22;15006;48.584;9.186;2023-06-19T01:31:23;19.10;53.20
27567;DHT22;15006;48.584;9.186;2023-06-19T01:33:52;19.10;53.30
27567;DHT22;15006;48.584;9.186;2023-06-19T01:36:20;19.10;53.20
27567;DHT22;15006;48.584;9.186;2023-06-19T01:38:48;19.10;53.30
27567;DHT22;15006;48.584;9.186;2023-06-19T01:41:16;19.20;53.40
27567;DHT22;15006;48.584;9.186;2023-06-19T01:43:42;19.20;53.40
27567;DHT22;15006;48.584;9.186;2023-06-19T01:46:08;19.20;53.30
27567;DHT22;15006;48.584;9.186;2023-06-19T01:48:35;19.10;53.20
27567;DHT22;15006;48.584;9.186;2023-06-19T01:51:03;19.10;53.20
27567;DHT22;15006;48.584;9.186;2023-06-19T01:53:32;19.10;53.10
27567;DHT22;15006;48.584;9.186;2023-06-19T01:55:58;19.10;53.30
27567;DHT22;15006;48.584;9.186;2023-06-19T01:58:24;19.10;53.20
27567;DHT22;15006;48.584;9.186;2023-06-19T02:00:50;19.00;53.30
27567;DHT22;15006;48.584;9.186;2023-06-19T02:03:16;19.00;53.40
27567;DHT22;15006;48.584;9.186;2023-06-19T02:05:43;19.00;53.50
27567;DHT22;15006;48.584;9.186;2023-06-19T02:08:09;18.90;53.50
27567;DHT22;15006;48.584;9.186;2023-06-19T02:10:35;18.80;53.50
27567;DHT22;15006;48.584;9.186;2023-06-19T02:13:01;18.80;53.60
27567;DHT22;15006;48.584;9.186;2023-06-19T02:15:27;18.70;53.80
27567;DHT22;15006;48.584;9.186;2023-06-19T02:17:55;18.70;53.90
27567;DHT22;15006;48.584;9.186;2023-06-19T02:20:25;18.60;54.30
27567;DHT22;15006;48.584;9.186;2023-06-19T02:22:51;18.60;54.80
27567;DHT22;15006;48.584;9.186;2023-06-19T02:25:17;18.50;54.70
27567;DHT22;15006;48.584;9.186;2023-06-19T02:27:44;18.50;54.90
27567;DHT22;15006;48.584;9.186;2023-06-19T02:30:10;18.40;55.10
27567;DHT22;15006;48.584;9.186;2023-06-19T02:32:36;18.40;55.30
27567;DHT22;15006;48.584;9.186;2023-06-19T02:35:08;18.40;55.50
27567;DHT22;15006;48.584;9.186;2023-06-19T02:37:35;18.30;55.50
27567;DHT22;15006;48.584;9.186;2023-06-19T02:40:04;18.30;55.50
27567;DHT22;15006;48.584;9.186;2023-06-19T02:42:31;18.30;55.80
27567;DHT22;15006;48.584;9.186;2023-06-19T02:44:57;18.30;55.70
27567;DHT22;15006;48.584;9.186;2023-06-19T02:47:30;18.20;55.90
27567;DHT22;15006;48.584;9.186;2023-06-19T02:50:00;18.20;56.00
27567;DHT22;15006;48.584;9.186;2023-06-19T02:52:28;18.20;56.10
27567;DHT22;15006;48.584;9.186;2023-06-19T02:54:54;18.20;56.10
27567;DHT22;15006;48.584;9.186;2023-06-19T02:57:20;18.20;56.20
27567;DHT22;15006;48.584;9.186;2023-06-19T02:59:46;18.10;56.50
27567;DHT22;15006;48.584;9.186;2023-06-19T03:02:12;18.10;56.50
27567;DHT22;15006;48.584;9.186;2023-06-19T03:04:39;18.10;56.70
27567;DHT22;15006;48.584;9.186;2023-06-19T03:07:06;18.10;57.00
27567;DHT22;15006;48.584;9.186;2023-06-19T03:09:32;18.00;57.00
27567;DHT22;15006;48.584;9.186;2023-06-19T03:11:58;18.00;57.10
27567;DHT22;15006;48.584;9.186;2023-06-19T03:14:24;18.00;57.30
27567;DHT22;15006;48.584;9.186;2023-06-19T03:16:50;18.00;57.40
27567;DHT22;15006;48.584;9.186;2023-06-19T03:19:16;18.00;57.50
27567;DHT22;15006;48.584;9.186;2023-06-19T03:21:42;18.00;57.50
27567;DHT22;15006;48.584;9.186;2023-06-19T03:24:08;18.00;57.60
27567;DHT22;15006;48.584;9.186;2023-06-19T03:26:34;18.00;57.50
27567;DHT22;15006;48.584;9.186;2023-06-19T03:29:00;18.00;57.50
27567;DHT22;15006;48.584;9.186;2023-06-19T03:31:26;18.00;57.50
27567;DHT22;15006;48.584;9.186;2023-06-19T03:33:52;18.00;57.70
27567;DHT22;15006;48.584;9.186;2023-06-19T03:36:18;18.00;57.90
27567;DHT22;15006;48.584;9.186;2023-06-19T03:38:45;18.00;57.80
27567;DHT22;15006;48.584;9.186;2023-06-19T03:41:10;18.00;57.80
27567;DHT22;15006;48.584;9.186;2023-06-19T03:43:37;18.00;58.00
27567;DHT22;15006;48.584;9.186;2023-06-19T03:46:03;18.00;58.00
27567;DHT22;15006;48.584;9.186;2023-06-19T03:48:29;18.00;58.00
27567;DHT22;15006;48.584;9.186;2023-06-19T03:50:55;18.00;58.00
27567;DHT22;15006;48.584;9.186;2023-06-19T03:53:21;18.00;58.20
27567;DHT22;15006;48.584;9.186;2023-06-19T03:55:47;18.00;58.80
27567;DHT22;15006;48.584;9.186;2023-06-19T03:58:13;18.00;58.20
27567;DHT22;15006;48.584;9.186;2023-06-19T04:00:39;18.00;58.30
27567;DHT22;15006;48.584;9.186;2023-06-19T04:03:06;18.00;58.30
27567;DHT22;15006;48.584;9.186;2023-06-19T04:05:35;18.00;58.30
27567;DHT22;15006;48.584;9.186;2023-06-19T04:08:00;18.00;58.30
27567;DHT22;15006;48.584;9.186;2023-06-19T04:10:26;18.00;58.30
27567;DHT22;15006;48.584;9.186;2023-06-19T04:12:52;18.00;58.50
27567;DHT22;15006;48.584;9.186;2023-06-19T04:15:21;17.90;58.50
27567;DHT22;15006;48.584;9.186;2023-06-19T04:17:49;18.00;58.80
27567;DHT22;15006;48.584;9.186;2023-06-19T04:20:15;17.90;58.80
27567;DHT22;15006;48.584;9.186;2023-06-19T04:22:41;17.90;58.80
27567;DHT22;15006;48.584;9.186;2023-06-19T04:25:08;18.00;58.90
27567;DHT22;15006;48.584;9.186;2023-06-19T04:27:36;17.90;59.10
27567;DHT22;15006;48.584;9.186;2023-06-19T04:30:03;17.90;59.30
27567;DHT22;15006;48.584;9.186;2023-06-19T04:32:30;17.90;59.70
27567;DHT22;15006;48.584;9.186;2023-06-19T04:34:56;17.80;59.60
27567;DHT22;15006;48.584;9.186;2023-06-19T04:37:23;17.80;60.10
27567;DHT22;15006;48.584;9.186;2023-06-19T04:39:48;17.80;60.30
27567;DHT22;15006;48.584;9.186;2023-06-19T04:42:17;17.80;60.60
27567;DHT22;15006;48.584;9.186;2023-06-19T04:44:48;17.80;60.90
27567;DHT22;15006;48.584;9.186;2023-06-19T04:47:16;17.80;61.20
27567;DHT22;15006;48.584;9.186;2023-06-19T04:49:42;17.80;61.20
27567;DHT22;15006;48.584;9.186;2023-06-19T04:52:09;17.70;61.20
27567;DHT22;15006;48.584;9.186;2023-06-19T04:54:35;17.80;61.30
27567;DHT22;15006;48.584;9.186;2023-06-19T04:57:01;17.80;61.50
27567;DHT22;15006;48.584;9.186;2023-06-19T04:59:27;17.80;61.50
27567;DHT22;15006;48.584;9.186;2023-06-19T05:01:53;17.80;61.70
27567;DHT22;15006;48.584;9.186;2023-06-19T05:04:23;17.80;61.50
27567;DHT22;15006;48.584;9.186;2023-06-19T05:06:50;17.80;61.80
27567;DHT22;15006;48.584;9.186;2023-06-19T05:09:17;17.90;61.40
27567;DHT22;15006;48.584;9.186;2023-06-19T05:11:43;17.90;61.30
27567;DHT22;15006;48.584;9.186;2023-06-19T05:14:09;17.90;61.10
27567;DHT22;15006;48.584;9.186;2023-06-19T05:16:35;18.00;61.20
27567;DHT22;15006;48.584;9.186;2023-06-19T05:19:01;18.00;61.00
27567;DHT22;15006;48.584;9.186;2023-06-19T05:21:27;18.10;60.90
27567;DHT22;15006;48.584;9.186;2023-06-19T05:23:53;18.10;60.90
27567;DHT22;15006;48.584;9.186;2023-06-19T05:26:19;18.10;61.10
27567;DHT22;15006;48.584;9.186;2023-06-19T05:28:46;18.10;61.30
27567;DHT22;15006;48.584;9.186;2023-06-19T05:31:12;18.20;61.30
27567;DHT22;15006;48.584;9.186;2023-06-19T05:33:39;18.20;61.30
27567;DHT22;15006;48.584;9.186;2023-06-19T05:36:06;18.30;61.40
27567;DHT22;15006;48.584;9.186;2023-06-19T05:38:32;18.20;61.60
27567;DHT22;15006;48.584;9.186;2023-06-19T05:40:58;18.30;61.60
27567;DHT22;15006;48.584;9.186;2023-06-19T05:43:24;18.20;61.80
27567;DHT22;15006;48.584;9.186;2023-06-19T05:45:51;18.30;61.70
27567;DHT22;15006;48.584;9.186;2023-06-19T05:48:18;18.30;61.70
27567;DHT22;15006;48.584;9.186;2023-06-19T05:50:44;18.40;61.60
27567;DHT22;15006;48.584;9.186;2023-06-19T05:53:10;18.50;61.50
27567;DHT22;15006;48.584;9.186;2023-06-19T05:55:36;18.50;61.40
27567;DHT22;15006;48.584;9.186;2023-06-19T05:58:02;18.50;61.20
27567;DHT22;15006;48.584;9.186;2023-06-19T06:00:30;18.60;61.40
27567;DHT22;15006;48.584;9.186;2023-06-19T06:02:57;18.60;61.40
27567;DHT22;15006;48.584;9.186;2023-06-19T06:05:26;18.70;61.40
27567;DHT22;15006;48.584;9.186;2023-06-19T06:07:53;18.70;61.20
27567;DHT22;15006;48.584;9.186;2023-06-19T06:10:20;18.80;61.20
27567;DHT22;15006;48.584;9.186;2023-06-19T06:12:48;18.80;61.20
27567;DHT22;15006;48.584;9.186;2023-06-19T06:15:14;18.90;61.30
27567;DHT22;15006;48.584;9.186;2023-06-19T06:17:41;18.90;61.10
27567;DHT22;15006;48.584;9.186;2023-06-19T06:20:07;19.00;60.70
27567;DHT22;15006;48.584;9.186;2023-06-19T06:22:41;19.10;61.00
27567;DHT22;15006;48.584;9.186;2023-06-19T06:25:08;19.20;61.20
27567;DHT22;15006;48.584;9.186;2023-06-19T06:27:36;19.30;61.10
27567;DHT22;15006;48.584;9.186;2023-06-19T06:30:02;19.40;61.00
27567;DHT22;15006;48.584;9.186;2023-06-19T06:32:31;19.50;60.80
27567;DHT22;15006;48.584;9.186;2023-06-19T06:34:57;19.60;59.90
27567;DHT22;15006;48.584;9.186;2023-06-19T06:37:24;19.80;59.60
27567;DHT22;15006;48.584;9.186;2023-06-19T06:39:50;19.80;59.30
27567;DHT22;15006;48.584;9.186;2023-06-19T06:42:17;19.90;59.10
27567;DHT22;15006;48.584;9.186;2023-06-19T06:44:44;20.00;59.00
27567;DHT22;15006;48.584;9.186;2023-06-19T06:47:10;20.00;58.70
27567;DHT22;15006;48.584;9.186;2023-06-19T06:49:36;20.10;58.70
27567;DHT22;15006;48.584;9.186;2023-06-19T06:52:05;20.10;58.50
27567;DHT22;15006;48.584;9.186;2023-06-19T06:54:31;20.20;59.10
27567;DHT22;15006;48.584;9.186;2023-06-19T06:56:57;20.30;58.30
27567;DHT22;15006;48.584;9.186;2023-06-19T06:59:25;20.40;58.00
27567;DHT22;15006;48.584;9.186;2023-06-19T07:01:53;20.40;58.00
27567;DHT22;15006;48.584;9.186;2023-06-19T07:04:20;20.50;57.80
27567;DHT22;15006;48.584;9.186;2023-06-19T07:06:46;20.60;57.90
27567;DHT22;15006;48.584;9.186;2023-06-19T07:09:12;20.70;57.90
27567;DHT22;15006;48.584;9.186;2023-06-19T07:11:38;20.70;57.40
27567;DHT22;15006;48.584;9.186;2023-06-19T07:14:04;20.90;57.30
27567;DHT22;15006;48.584;9.186;2023-06-19T07:16:30;20.90;57.30
27567;DHT22;15006;48.584;9.186;2023-06-19T07:18:56;21.00;57.10
27567;DHT22;15006;48.584;9.186;2023-06-19T07:21:22;21.20;57.20
27567;DHT22;15006;48.584;9.186;2023-06-19T07:23:48;21.30;56.90
27567;DHT22;15006;48.584;9.186;2023-06-19T07:26:14;21.40;56.30
27567;DHT22;15006;48.584;9.186;2023-06-19T07:28:41;21.50;56.10
27567;DHT22;15006;48.584;9.186;2023-06-19T07:31:07;21.50;55.70
27567;DHT22;15006;48.584;9.186;2023-06-19T07:33:33;21.60;56.10
27567;DHT22;15006;48.584;9.186;2023-06-19T07:36:00;21.60;56.00
27567;DHT22;15006;48.584;9.186;2023-06-19T07:38:30;21.70;55.90
27567;DHT22;15006;48.584;9.186;2023-06-19T07:40:56;21.70;55.60
27567;DHT22;15006;48.584;9.186;2023-06-19T07:43:22;21.70;55.80
27567;DHT22;15006;48.584;9.186;2023-06-19T07:45:48;21.80;55.90
27567;DHT22;15006;48.584;9.186;2023-06-19T07:48:15;21.80;55.70
27567;DHT22;15006;48.584;9.186;2023-06-19T07:50:41;21.90;55.80
27567;DHT22;15006;48.584;9.186;2023-06-19T07:53:07;21.90;55.70
27567;DHT22;15006;48.584;9.186;2023-06-19T07:55:33;21.90;56.00
27567;DHT22;15006;48.584;9.186;2023-06-19T07:58:01;22.00;55.80
27567;DHT22;15006;48.584;9.186;2023-06-19T08:00:27;22.10;55.80
27567;DHT22;15006;48.584;9.186;2023-06-19T08:02:53;22.20;54.80
27567;DHT22;15006;48.584;9.186;2023-06-19T08:05:19;22.30;54.10
27567;DHT22;15006;48.584;9.186;2023-06-19T08:07:45;22.30;54.80
27567;DHT22;15006;48.584;9.186;2023-06-19T08:10:11;22.40;54.20
27567;DHT22;15006;48.584;9.186;2023-06-19T08:12:38;22.50;53.60
27567;DHT22;15006;48.584;9.186;2023-06-19T08:15:06;22.60;53.30
27567;DHT22;15006;48.584;9.186;2023-06-19T08:17:33;22.60;53.20
27567;DHT22;15006;48.584;9.186;2023-06-19T08:20:00;22.60;53.00
27567;DHT22;15006;48.584;9.186;2023-06-19T08:22:26;22.70;53.10
27567;DHT22;15006;48.584;9.186;2023-06-19T08:24:52;22.70;53.30
27567;DHT22;15006;48.584;9.186;2023-06-19T08:27:18;22.80;53.80
27567;DHT22;15006;48.584;9.186;2023-06-19T08:29:44;22.80;53.30
27567;DHT22;15006;48.584;9.186;2023-06-19T08:32:10;22.90;52.90
27567;DHT22;15006;48.584;9.186;2023-06-19T08:34:36;23.00;52.00
27567;DHT22;15006;48.584;9.186;2023-06-19T08:37:05;23.00;52.00
27567;DHT22;15006;48.584;9.186;2023-06-19T08:39:31;23.10;52.20
27567;DHT22;15006;48.584;9.186;2023-06-19T08:41:57;23.10;51.30
27567;DHT22;15006;48.584;9.186;2023-06-19T08:44:23;23.20;51.40
27567;DHT22;15006;48.584;9.186;2023-06-19T08:46:49;23.20;51.20
27567;DHT22;15006;48.584;9.186;2023-06-19T08:49:15;23.30;51.10
27567;DHT22;15006;48.584;9.186;2023-06-19T08:51:41;23.40;50.30
27567;DHT22;15006;48.584;9.186;2023-06-19T08:54:07;23.40;50.10
27567;DHT22;15006;48.584;9.186;2023-06-19T08:56:34;23.50;50.20
27567;DHT22;15006;48.584;9.186;2023-06-19T08:59:17;23.50;49.90
27567;DHT22;15006;48.584;9.186;2023-06-19T09:01:48;23.60;49.90
27567;DHT22;15006;48.584;9.186;2023-06-19T09:04:22;23.70;50.30
27567;DHT22;15006;48.584;9.186;2023-06-19T09:06:57;23.80;50.60
27567;DHT22;15006;48.584;9.186;2023-06-19T09:09:26;24.00;50.60
27567;DHT22;15006;48.584;9.186;2023-06-19T09:12:03;24.30;50.70
27567;DHT22;15006;48.584;9.186;2023-06-19T09:14:34;24.70;48.60
27567;DHT22;15006;48.584;9.186;2023-06-19T09:17:02;25.10;49.50
27567;DHT22;15006;48.584;9.186;2023-06-19T09:19:29;25.40;48.50
27567;DHT22;15006;48.584;9.186;2023-06-19T09:22:06;25.80;47.00
27567;DHT22;15006;48.584;9.186;2023-06-19T09:24:41;26.00;44.40
27567;DHT22;15006;48.584;9.186;2023-06-19T09:27:11;26.20;43.90
27567;DHT22;15006;48.584;9.186;2023-06-19T09:29:45;26.20;44.00
27567;DHT22;15006;48.584;9.186;2023-06-19T09:32:24;26.30;43.40
27567;DHT22;15006;48.584;9.186;2023-06-19T09:34:53;26.20;42.80
27567;DHT22;15006;48.584;9.186;2023-06-19T09:37:28;26.20;42.80
27567;DHT22;15006;48.584;9.186;2023-06-19T09:39:57;26.00;42.70
27567;DHT22;15006;48.584;9.186;2023-06-19T09:42:31;25.90;42.80
27567;DHT22;15006;48.584;9.186;2023-06-19T09:45:00;25.80;43.10
27567;DHT22;15006;48.584;9.186;2023-06-19T09:47:32;25.70;42.90
27567;DHT22;15006;48.584;9.186;2023-06-19T09:50:02;25.70;43.40
27567;DHT22;15006;48.584;9.186;2023-06-19T09:52:29;25.50;43.10
27567;DHT22;15006;48.584;9.186;2023-06-19T09:54:56;25.50;43.60
27567;DHT22;15006;48.584;9.186;2023-06-19T09:57:23;25.50;43.70
27567;DHT22;15006;48.584;9.186;2023-06-19T09:59:53;25.60;42.80
27567;DHT22;15006;48.584;9.186;2023-06-19T10:02:20;25.70;42.60
27567;DHT22;15006;48.584;9.186;2023-06-19T10:04:53;25.80;43.30
27567;DHT22;15006;48.584;9.186;2023-06-19T10:07:32;25.90;42.60
27567;DHT22;15006;48.584;9.186;2023-06-19T10:12:41;26.20;43.50
27567;DHT22;15006;48.584;9.186;2023-06-19T10:17:46;26.90;42.30
27567;DHT22;15006;48.584;9.186;2023-06-19T10:20:35;27.30;42.20
27567;DHT22;15006;48.584;9.186;2023-06-19T10:25:45;28.30;41.20
27567;DHT22;15006;48.584;9.186;2023-06-19T10:28:28;28.70;39.80
27567;DHT22;15006;48.584;9.186;2023-06-19T10:33:26;29.30;39.60
27567;DHT22;15006;48.584;9.186;2023-06-19T10:35:54;29.50;40.70
27567;DHT22;15006;48.584;9.186;2023-06-19T10:38:21;29.80;39.60
27567;DHT22;15006;48.584;9.186;2023-06-19T10:40:47;30.20;38.20
27567;DHT22;15006;48.584;9.186;2023-06-19T10:43:22;30.50;36.90
27567;DHT22;15006;48.584;9.186;2023-06-19T10:45:53;30.60;35.70
27567;DHT22;15006;48.584;9.186;2023-06-19T10:48:24;30.80;35.20
27567;DHT22;15006;48.584;9.186;2023-06-19T10:50:51;30.70;35.50
27567;DHT22;15006;48.584;9.186;2023-06-19T10:53:28;30.80;36.20
27567;DHT22;15006;48.584;9.186;2023-06-19T10:55:58;30.90;35.50
27567;DHT22;15006;48.584;9.186;2023-06-19T10:58:29;31.00;35.20
27567;DHT22;15006;48.584;9.186;2023-06-19T11:00:55;31.20;35.70
27567;DHT22;15006;48.584;9.186;2023-06-19T11:03:22;31.30;36.00
27567;DHT22;15006;48.584;9.186;2023-06-19T11:05:48;31.50;36.00
27567;DHT22;15006;48.584;9.186;2023-06-19T11:08:19;31.60;34.90
27567;DHT22;15006;48.584;9.186;2023-06-19T11:10:45;31.80;34.20
27567;DHT22;15006;48.584;9.186;2023-06-19T11:13:19;31.90;34.30
27567;DHT22;15006;48.584;9.186;2023-06-19T11:15:48;32.00;33.70
27567;DHT22;15006;48.584;9.186;2023-06-19T11:18:18;32.00;34.20
27567;DHT22;15006;48.584;9.186;2023-06-19T11:20:49;32.00;33.50
27567;DHT22;15006;48.584;9.186;2023-06-19T11:23:17;31.90;33.80
27567;DHT22;15006;48.584;9.186;2023-06-19T11:25:51;31.80;33.20
27567;DHT22;15006;48.584;9.186;2023-06-19T11:28:17;31.70;33.90
27567;DHT22;15006;48.584;9.186;2023-06-19T11:30:49;31.50;33.60
27567;DHT22;15006;48.584;9.186;2023-06-19T11:33:23;31.40;33.60
27567;DHT22;15006;48.584;9.186;2023-06-19T11:35:50;31.40;33.30
27567;DHT22;15006;48.584;9.186;2023-06-19T11:38:21;31.30;33.30
27567;DHT22;15006;48.584;9.186;2023-06-19T11:40:50;31.20;33.60
27567;DHT22;15006;48.584;9.186;2023-06-19T11:43:27;31.20;34.00
27567;DHT22;15006;48.584;9.186;2023-06-19T11:46:05;31.20;32.90
27567;DHT22;15006;48.584;9.186;2023-06-19T11:48:32;31.30;32.90
27567;DHT22;15006;48.584;9.186;2023-06-19T11:50:58;31.20;33.20
27567;DHT22;15006;48.584;9.186;2023-06-19T11:53:24;31.20;33.20
27567;DHT22;15006;48.584;9.186;2023-06-19T11:55:51;31.10;33.30
27567;DHT22;15006;48.584;9.186;2023-06-19T11:58:17;30.90;33.40
27567;DHT22;15006;48.584;9.186;2023-06-19T12:00:46;30.80;33.80
27567;DHT22;15006;48.584;9.186;2023-06-19T12:03:12;30.70;34.30
27567;DHT22;15006;48.584;9.186;2023-06-19T12:05:38;30.60;34.50
27567;DHT22;15006;48.584;9.186;2023-06-19T12:08:05;30.70;34.20
27567;DHT22;15006;48.584;9.186;2023-06-19T12:10:35;30.80;33.30
27567;DHT22;15006;48.584;9.186;2023-06-19T12:13:01;30.90;33.00
27567;DHT22;15006;48.584;9.186;2023-06-19T12:15:27;30.90;33.00
27567;DHT22;15006;48.584;9.186;2023-06-19T12:17:53;31.00;33.30
27567;DHT22;15006;48.584;9.186;2023-06-19T12:20:19;31.00;33.00
27567;DHT22;15006;48.584;9.186;2023-06-19T12:22:45;31.10;33.20
27567;DHT22;15006;48.584;9.186;2023-06-19T12:25:11;31.10;34.20
27567;DHT22;15006;48.584;9.186;2023-06-19T12:27:38;31.30;33.40
27567;DHT22;15006;48.584;9.186;2023-06-19T12:30:04;31.40;33.50
27567;DHT22;15006;48.584;9.186;2023-06-19T12:32:32;31.60;32.70
27567;DHT22;15006;48.584;9.186;2023-06-19T12:34:58;31.70;32.20
27567;DHT22;15006;48.584;9.186;2023-06-19T12:37:24;31.80;31.90
27567;DHT22;15006;48.584;9.186;2023-06-19T12:39:50;32.00;31.60
27567;DHT22;15006;48.584;9.186;2023-06-19T12:42:17;32.00;32.70
27567;DHT22;15006;48.584;9.186;2023-06-19T12:44:43;32.30;32.10
27567;DHT22;15006;48.584;9.186;2023-06-19T12:47:12;32.60;31.90
27567;DHT22;15006;48.584;9.186;2023-06-19T12:49:39;33.00;31.80
27567;DHT22;15006;48.584;9.186;2023-06-19T12:52:05;33.20;30.60
27567;DHT22;15006;48.584;9.186;2023-06-19T12:54:31;33.50;29.70
27567;DHT22;15006;48.584;9.186;2023-06-19T12:56:57;33.60;30.70
27567;DHT22;15006;48.584;9.186;2023-06-19T12:59:23;33.80;29.80
27567;DHT22;15006;48.584;9.186;2023-06-19T13:01:50;33.90;29.40
27567;DHT22;15006;48.584;9.186;2023-06-19T13:04:16;34.00;29.30
27567;DHT22;15006;48.584;9.186;2023-06-19T13:06:42;34.20;29.00
27567;DHT22;15006;48.584;9.186;2023-06-19T13:09:08;34.30;29.20
27567;DHT22;15006;48.584;9.186;2023-06-19T13:11:35;34.40;29.70
27567;DHT22;15006;48.584;9.186;2023-06-19T13:14:01;34.60;29.40
27567;DHT22;15006;48.584;9.186;2023-06-19T13:16:27;34.70;29.10
27567;DHT22;15006;48.584;9.186;2023-06-19T13:18:53;34.90;28.40
27567;DHT22;15006;48.584;9.186;2023-06-19T13:21:19;34.90;29.00
27567;DHT22;15006;48.584;9.186;2023-06-19T13:23:45;35.00;28.20
27567;DHT22;15006;48.584;9.186;2023-06-19T13:26:12;35.00;28.80
27567;DHT22;15006;48.584;9.186;2023-06-19T13:28:38;35.20;28.50
27567;DHT22;15006;48.584;9.186;2023-06-19T13:31:04;35.30;27.90
27567;DHT22;15006;48.584;9.186;2023-06-19T13:33:30;35.50;28.50
27567;DHT22;15006;48.584;9.186;2023-06-19T13:35:56;35.70;27.60
27567;DHT22;15006;48.584;9.186;2023-06-19T13:38:22;35.70;27.40
27567;DHT22;15006;48.584;9.186;2023-06-19T13:40:48;35.80;27.20
27567;DHT22;15006;48.584;9.186;2023-06-19T13:43:14;35.90;27.00
27567;DHT22;15006;48.584;9.186;2023-06-19T13:45:40;35.80;26.80
27567;DHT22;15006;48.584;9.186;2023-06-19T13:48:07;35.80;26.90
27567;DHT22;15006;48.584;9.186;2023-06-19T13:50:33;35.80;27.10
27567;DHT22;15006;48.584;9.186;2023-06-19T13:53:00;35.70;27.00
27567;DHT22;15006;48.584;9.186;2023-06-19T13:55:27;35.60;27.10
27567;DHT22;15006;48.584;9.186;2023-06-19T13:57:53;35.40;27.10
27567;DHT22;15006;48.584;9.186;2023-06-19T14:00:19;35.30;27.40
27567;DHT22;15006;48.584;9.186;2023-06-19T14:02:45;35.30;27.60
27567;DHT22;15006;48.584;9.186;2023-06-19T14:05:11;35.40;27.80
27567;DHT22;15006;48.584;9.186;2023-06-19T14:07:40;35.50;27.70
27567;DHT22;15006;48.584;9.186;2023-06-19T14:10:08;35.70;27.50
27567;DHT22;15006;48.584;9.186;2023-06-19T14:12:34;35.60;26.60
27567;DHT22;15006;48.584;9.186;2023-06-19T14:15:00;35.70;26.90
27567;DHT22;15006;48.584;9.186;2023-06-19T14:17:26;35.60;26.70
27567;DHT22;15006;48.584;9.186;2023-06-19T14:19:53;35.50;26.50
27567;DHT22;15006;48.584;9.186;2023-06-19T14:22:21;35.50;26.80
27567;DHT22;15006;48.584;9.186;2023-06-19T14:24:46;35.50;26.80
27567;DHT22;15006;48.584;9.186;2023-06-19T14:27:13;35.40;26.30
27567;DHT22;15006;48.584;9.186;2023-06-19T14:29:39;35.30;26.40
27567;DHT22;15006;48.584;9.186;2023-06-19T14:32:05;35.00;26.60
27567;DHT22;15006;48.584;9.186;2023-06-19T14:34:31;34.80;26.90
27567;DHT22;15006;48.584;9.186;2023-06-19T14:36:57;34.60;27.10
27567;DHT22;15006;48.584;9.186;2023-06-19T14:39:23;34.50;27.00
27567;DHT22;15006;48.584;9.186;2023-06-19T14:41:49;34.30;27.40
27567;DHT22;15006;48.584;9.186;2023-06-19T14:44:15;34.10;27.60
27567;DHT22;15006;48.584;9.186;2023-06-19T14:46:41;33.80;27.60
27567;DHT22;15006;48.584;9.186;2023-06-19T14:49:09;33.60;27.60
27567;DHT22;15006;48.584;9.186;2023-06-19T14:51:36;33.40;28.00
27567;DHT22;15006;48.584;9.186;2023-06-19T14:54:02;33.10;27.80
27567;DHT22;15006;48.584;9.186;2023-06-19T14:56:28;32.90;28.10
27567;DHT22;15006;48.584;9.186;2023-06-19T14:58:54;32.80;28.50
27567;DHT22;15006;48.584;9.186;2023-06-19T15:01:20;32.50;28.50
27567;DHT22;15006;48.584;9.186;2023-06-19T15:03:46;32.30;28.50
27567;DHT22;15006;48.584;9.186;2023-06-19T15:06:12;32.00;28.80
27567;DHT22;15006;48.584;9.186;2023-06-19T15:08:38;31.80;29.80
27567;DHT22;15006;48.584;9.186;2023-06-19T15:11:05;31.60;30.00
27567;DHT22;15006;48.584;9.186;2023-06-19T15:13:31;31.40;30.70
27567;DHT22;15006;48.584;9.186;2023-06-19T15:15:58;31.30;30.70
27567;DHT22;15006;48.584;9.186;2023-06-19T15:18:27;31.20;30.80
27567;DHT22;15006;48.584;9.186;2023-06-19T15:20:53;31.10;30.80
27567;DHT22;15006;48.584;9.186;2023-06-19T15:23:19;31.00;31.00
27567;DHT22;15006;48.584;9.186;2023-06-19T15:25:45;30.90;30.70
27567;DHT22;15006;48.584;9.186;2023-06-19T15:28:11;30.70;30.70
27567;DHT22;15006;48.584;9.186;2023-06-19T15:30:36;30.50;31.00
27567;DHT22;15006;48.584;9.186;2023-06-19T15:33:02;30.30;31.00
27567;DHT22;15006;48.584;9.186;2023-06-19T15:35:29;30.00;31.70
27567;DHT22;15006;48.584;9.186;2023-06-19T15:37:54;29.80;31.40
27567;DHT22;15006;48.584;9.186;2023-06-19T15:40:26;29.50;32.00
27567;DHT22;15006;48.584;9.186;2023-06-19T15:42:56;29.30;33.40
27567;DHT22;15006;48.584;9.186;2023-06-19T15:45:22;29.10;34.00